Time;durP1;ratioP1;P1;durP2;ratioP2;P2;SDS_P1;SDS_P2;PMS_P1;PMS_P2;Temp;Humidity;BMP_temperature;BMP_pressure;BME280_temperature;BME280_humidity;BME280_pressure;Samples;Min_cycle;Max_cycle;Signal;HPM_P1;HPM_P2
2021/12/11 00:01:42;;;;;;;15.85;13.80;;;;;;;8.64;100.00;99579.75;1654932;84;21559;-86
2021/12/11 00:04:13;;;;;;;17.60;14.30;;;;;;;8.66;100.00;99570.95;1682596;85;21020;-85
2021/12/11 00:06:45;;;;;;;16.95;12.80;;;;;;;8.66;100.00;99574.16;1682661;85;21127;-87
2021/12/11 00:09:27;;;;;;;13.38;10.95;;;;;;;8.65;100.00;99575.20;1688507;83;21156;-85
2021/12/11 00:11:59;;;;;;;15.83;12.63;;;;;;;8.68;100.00;99576.09;1714450;82;20980;-84
2021/12/11 00:14:28;;;;;;;14.60;12.13;;;;;;;8.67;100.00;99567.22;1710401;81;21003;-82
2021/12/11 00:16:55;;;;;;;17.48;13.43;;;;;;;8.66;100.00;99568.27;1686440;85;21604;-84
2021/12/11 00:19:30;;;;;;;15.95;12.70;;;;;;;8.64;100.00;99574.39;1698501;82;20952;-86
2021/12/11 00:22:13;;;;;;;20.20;12.28;;;;;;;8.65;100.00;99574.69;1710251;82;21153;-84
2021/12/11 00:24:40;;;;;;;16.55;12.60;;;;;;;8.68;100.00;99565.36;1746215;82;20988;-85
2021/12/11 00:27:10;;;;;;;15.53;12.78;;;;;;;8.69;100.00;99574.48;1726465;82;21546;-82
2021/12/11 00:29:37;;;;;;;14.10;11.70;;;;;;;8.66;100.00;99571.48;1701014;83;21513;-87
2021/12/11 00:32:12;;;;;;;11.88;10.68;;;;;;;8.67;100.00;99569.09;1691929;82;21600;-83
2021/12/11 00:34:43;;;;;;;18.37;13.13;;;;;;;8.70;100.00;99571.28;1745042;82;21137;-86
2021/12/11 00:37:10;;;;;;;22.80;14.33;;;;;;;8.74;100.00;99570.56;1725815;82;21631;-83
2021/12/11 00:39:50;;;;;;;15.53;11.53;;;;;;;8.77;100.00;99576.50;1733225;82;21008;-87
2021/12/11 00:42:20;;;;;;;15.32;13.05;;;;;;;8.75;100.00;99568.17;1733782;82;21015;-80
2021/12/11 00:44:51;;;;;;;13.20;11.57;;;;;;;8.75;100.00;99564.14;1724987;82;21485;-85
2021/12/11 00:47:21;;;;;;;17.12;13.50;;;;;;;8.77;100.00;99570.62;1697284;82;21037;-81
2021/12/11 00:50:10;;;;;;;12.70;11.00;;;;;;;8.80;100.00;99581.37;1727335;82;21008;-83
2021/12/11 00:52:59;;;;;;;15.75;12.13;;;;;;;8.79;100.00;99569.02;1697305;83;21020;-84
2021/12/11 00:55:31;;;;;;;19.85;12.68;;;;;;;8.80;100.00;99571.47;1715630;83;21083;-83
2021/12/11 00:58:17;;;;;;;16.23;14.03;;;;;;;8.82;100.00;99565.87;1697083;83;21055;-82
2021/12/11 01:01:00;;;;;;;15.43;11.15;;;;;;;8.84;100.00;99570.45;1673026;83;21540;-82
2021/12/11 01:03:37;;;;;;;14.45;11.63;;;;;;;8.83;100.00;99574.18;1715651;83;21391;-84
2021/12/11 01:06:11;;;;;;;14.73;11.90;;;;;;;8.87;100.00;99589.58;1738432;82;21046;-82
2021/12/11 01:08:41;;;;;;;16.10;12.28;;;;;;;8.92;100.00;99572.76;1685701;83;21556;-83
2021/12/11 01:11:18;;;;;;;14.50;12.95;;;;;;;8.92;100.00;99578.12;1688328;83;21028;-84
2021/12/11 01:13:53;;;;;;;16.12;12.43;;;;;;;8.89;100.00;99562.50;1674914;83;23774;-81
2021/12/11 01:16:20;;;;;;;15.28;12.25;;;;;;;8.87;100.00;99576.16;1709934;83;20914;-84
2021/12/11 01:18:50;;;;;;;19.35;12.37;;;;;;;8.85;100.00;99584.15;1717465;83;21092;-87
2021/12/11 01:21:30;;;;;;;18.35;13.03;;;;;;;8.83;100.00;99583.04;1712068;83;21503;-88
2021/12/11 01:24:10;;;;;;;16.73;13.53;;;;;;;8.82;100.00;99584.13;1644824;86;21059;-83
2021/12/11 01:26:25;;;;;;;20.08;14.98;;;;;;;8.84;100.00;99567.25;1672215;84;23064;-77
2021/12/11 01:28:52;;;;;;;15.15;11.15;;;;;;;8.81;100.00;99585.69;1688684;84;20995;-76
2021/12/11 01:31:20;;;;;;;20.48;12.75;;;;;;;8.83;100.00;99578.20;1650515;85;21211;-76
2021/12/11 01:33:46;;;;;;;20.32;13.48;;;;;;;8.81;100.00;99583.83;1673798;84;21065;-76
2021/12/11 01:36:13;;;;;;;16.45;13.90;;;;;;;8.84;100.00;99582.52;1690350;83;21079;-75
2021/12/11 01:38:40;;;;;;;13.70;11.93;;;;;;;8.89;100.00;99577.25;1690110;84;21209;-75
2021/12/11 01:41:12;;;;;;;21.62;12.50;;;;;;;8.94;100.00;99581.36;1692631;84;21548;-74
2021/12/11 01:43:40;;;;;;;16.13;13.50;;;;;;;8.93;100.00;99582.41;1681092;84;21030;-75
2021/12/11 01:46:07;;;;;;;16.48;14.03;;;;;;;8.92;100.00;99586.17;1692850;84;21079;-76
2021/12/11 01:48:37;;;;;;;17.10;13.08;;;;;;;8.94;100.00;99584.86;1671022;84;21075;-74
2021/12/11 01:51:11;;;;;;;16.93;12.60;;;;;;;8.92;100.00;99576.78;1651543;85;21218;-77
2021/12/11 01:53:46;;;;;;;13.98;11.48;;;;;;;8.83;100.00;99576.86;1664240;86;21019;-74
2021/12/11 01:56:16;;;;;;;15.03;12.15;;;;;;;8.77;100.00;99579.19;1631750;87;21022;-75
2021/12/11 01:58:55;;;;;;;13.25;11.65;;;;;;;8.73;100.00;99577.48;1664893;84;21490;-75
2021/12/11 02:01:27;;;;;;;18.37;12.28;;;;;;;8.71;100.00;99585.80;1693554;83;20986;-75
2021/12/11 02:03:54;;;;;;;21.12;13.10;;;;;;;8.64;100.00;99583.77;1669265;84;21620;-75
2021/12/11 02:06:21;;;;;;;16.85;12.43;;;;;;;8.56;100.00;99584.69;1693092;84;21099;-76
2021/12/11 02:08:47;;;;;;;17.75;13.50;;;;;;;8.56;100.00;99584.69;1692167;84;20979;-76
2021/12/11 02:11:20;;;;;;;18.62;12.82;;;;;;;8.56;100.00;99582.01;1692685;84;21036;-74
2021/12/11 02:14:03;;;;;;;17.07;13.30;;;;;;;8.57;100.00;99579.09;1672357;84;21607;-74
2021/12/11 02:16:38;;;;;;;15.65;13.68;;;;;;;8.54;100.00;99591.62;1695511;84;21930;-74
2021/12/11 02:19:23;;;;;;;17.35;15.00;;;;;;;8.51;100.00;99577.89;1668586;84;20963;-74
2021/12/11 02:21:56;;;;;;;15.65;12.50;;;;;;;8.49;100.00;99577.33;1683025;84;21136;-69
2021/12/11 02:24:25;;;;;;;16.37;14.58;;;;;;;8.52;100.00;99580.86;1653188;84;21103;-69
2021/12/11 02:26:54;;;;;;;15.83;14.03;;;;;;;8.55;100.00;99576.35;1668029;84;21127;-72
2021/12/11 02:29:34;;;;;;;18.17;14.45;;;;;;;8.55;100.00;99579.03;1689897;84;21160;-71
2021/12/11 02:32:12;;;;;;;17.15;14.15;;;;;;;8.56;100.00;99578.80;1667449;85;21427;-71
2021/12/11 02:34:45;;;;;;;19.48;15.53;;;;;;;8.57;100.00;99585.80;1667419;86;21023;-70
2021/12/11 02:37:34;;;;;;;18.23;13.48;;;;;;;8.57;100.00;99590.34;1667419;84;21082;-72
2021/12/11 02:40:11;;;;;;;20.40;14.35;;;;;;;8.54;100.00;99588.94;1641825;86;21035;-70
2021/12/11 02:42:43;;;;;;;19.02;14.58;;;;;;;8.55;100.00;99586.55;1691585;84;21186;-70
2021/12/11 02:45:24;;;;;;;14.70;13.03;;;;;;;8.54;100.00;99586.78;1695638;84;21038;-76
2021/12/11 02:48:01;;;;;;;20.25;15.35;;;;;;;8.49;100.00;99586.71;1669530;84;20959;-72
2021/12/11 02:50:51;;;;;;;15.90;14.25;;;;;;;8.51;100.00;99598.80;1669154;84;21551;-72
2021/12/11 02:53:28;;;;;;;15.50;12.70;;;;;;;8.51;100.00;99602.02;1667620;84;21047;-74
2021/12/11 02:56:00;;;;;;;16.40;14.18;;;;;;;8.51;100.00;99590.77;1695073;84;21130;-75
2021/12/11 02:58:32;;;;;;;15.88;11.40;;;;;;;8.52;100.00;99607.66;1677203;84;21570;-73
2021/12/11 03:01:23;;;;;;;19.02;15.55;;;;;;;8.45;100.00;99597.08;1694577;84;21546;-73
2021/12/11 03:03:51;;;;;;;17.25;12.28;;;;;;;8.43;100.00;99593.02;1692908;84;21016;-73
2021/12/11 03:06:20;;;;;;;14.90;13.15;;;;;;;8.47;100.00;99584.27;1694554;84;22166;-74
2021/12/11 03:08:45;;;;;;;19.23;12.98;;;;;;;8.49;100.00;99597.44;1704918;83;21202;-74
2021/12/11 03:11:14;;;;;;;15.93;12.60;;;;;;;8.50;100.00;99589.13;1660965;84;21086;-75
2021/12/11 03:13:44;;;;;;;22.30;13.95;;;;;;;8.52;100.00;99594.27;1696794;83;21075;-75
2021/12/11 03:16:10;;;;;;;14.15;10.93;;;;;;;8.49;100.00;99584.03;1726201;82;21020;-75
2021/12/11 03:18:37;;;;;;;14.30;12.73;;;;;;;8.44;100.00;99592.75;1701954;83;21597;-75
2021/12/11 03:21:03;;;;;;;15.55;13.85;;;;;;;8.44;100.00;99585.27;1717675;83;22125;-74
2021/12/11 03:23:29;;;;;;;18.37;13.65;;;;;;;8.44;100.00;99600.80;1718836;83;21619;-76
2021/12/11 03:25:56;;;;;;;18.40;11.90;;;;;;;8.42;100.00;99590.05;1716973;83;20987;-76
2021/12/11 03:28:24;;;;;;;13.43;12.00;;;;;;;8.42;100.00;99595.40;1719588;83;21044;-74
2021/12/11 03:30:56;;;;;;;20.77;11.00;;;;;;;8.39;100.00;99592.69;1718389;83;21008;-75
2021/12/11 03:33:26;;;;;;;19.40;15.28;;;;;;;8.39;100.00;99583.30;1719506;83;21321;-75
2021/12/11 03:35:55;;;;;;;15.75;13.83;;;;;;;8.43;100.00;99590.34;1719116;83;20975;-77
2021/12/11 03:38:22;;;;;;;20.10;15.80;;;;;;;8.40;100.00;99582.23;1719482;83;21015;-77
2021/12/11 03:40:49;;;;;;;19.23;14.10;;;;;;;8.38;100.00;99595.59;1701372;83;21050;-75
2021/12/11 03:43:18;;;;;;;23.70;15.63;;;;;;;8.37;100.00;99587.27;1690811;84;21067;-76
2021/12/11 03:45:47;;;;;;;22.93;16.48;;;;;;;8.36;100.00;99588.30;1674651;84;21588;-75
2021/12/11 03:48:41;;;;;;;17.30;14.30;;;;;;;8.34;100.00;99572.48;1690495;84;20975;-74
2021/12/11 03:51:10;;;;;;;19.27;15.15;;;;;;;8.34;100.00;99592.58;1710051;83;21659;-75
2021/12/11 03:53:37;;;;;;;14.68;11.97;;;;;;;8.35;100.00;99592.84;1702671;83;21036;-75
2021/12/11 03:56:08;;;;;;;20.45;13.98;;;;;;;8.35;100.00;99596.87;1703296;82;21530;-75
2021/12/11 03:58:35;;;;;;;20.48;14.80;;;;;;;8.34;100.00;99588.56;1726831;81;21117;-74
2021/12/11 04:01:14;;;;;;;18.52;13.32;;;;;;;8.32;100.00;99593.33;1697854;83;21498;-74
2021/12/11 04:03:43;;;;;;;17.77;14.75;;;;;;;8.31;100.00;99586.34;1732157;82;21025;-76
2021/12/11 04:06:11;;;;;;;17.50;15.70;;;;;;;8.26;100.00;99578.98;1690364;84;20991;-75
2021/12/11 04:08:41;;;;;;;16.17;14.18;;;;;;;8.26;100.00;99590.22;1709126;83;21361;-76
2021/12/11 04:11:11;;;;;;;19.50;13.40;;;;;;;8.27;100.00;99593.20;1677582;84;21054;-75
2021/12/11 04:13:38;;;;;;;21.40;14.80;;;;;;;8.31;100.00;99597.87;1689997;84;20967;-75
2021/12/11 04:16:05;;;;;;;21.25;15.90;;;;;;;8.31;100.00;99602.41;1668194;84;21543;-75
2021/12/11 04:18:33;;;;;;;19.00;16.30;;;;;;;8.33;100.00;99592.81;1623748;85;20943;-77
2021/12/11 04:21:01;;;;;;;18.32;13.05;;;;;;;8.30;100.00;99590.88;1685305;84;20947;-74
2021/12/11 04:23:29;;;;;;;18.42;14.95;;;;;;;8.33;100.00;99592.29;1703007;84;21104;-75
2021/12/11 04:25:56;;;;;;;20.88;15.50;;;;;;;8.41;100.00;99593.77;1673075;84;20971;-72
2021/12/11 04:28:25;;;;;;;19.67;15.60;;;;;;;8.44;100.00;99591.97;1707845;82;21095;-75
2021/12/11 04:30:54;;;;;;;22.30;17.57;;;;;;;8.45;100.00;99598.94;1703693;82;21129;-73
2021/12/11 04:33:20;;;;;;;22.60;16.70;;;;;;;8.46;100.00;99593.34;1672120;84;21110;-73
2021/12/11 04:35:47;;;;;;;21.95;15.23;;;;;;;8.44;100.00;99580.70;1703824;83;21841;-76
2021/12/11 04:38:14;;;;;;;26.70;16.77;;;;;;;8.39;100.00;99581.15;1703537;84;21800;-76
2021/12/11 04:40:46;;;;;;;19.87;15.25;;;;;;;8.37;100.00;99587.27;1703925;82;21047;-76
2021/12/11 04:43:16;;;;;;;24.05;16.65;;;;;;;8.35;100.00;99583.99;1732432;82;21082;-76
2021/12/11 04:45:48;;;;;;;22.00;15.78;;;;;;;8.35;100.00;99566.05;1697621;82;21528;-75
2021/12/11 04:48:36;;;;;;;26.60;17.10;;;;;;;8.34;100.00;99565.79;1732680;82;21873;-75
2021/12/11 04:51:08;;;;;;;25.85;17.45;;;;;;;8.34;100.00;99585.06;1716817;82;20983;-77
2021/12/11 04:53:50;;;;;;;;;;;;;;;8.36;100.00;99577.06;1704763;84;21508;-76
2021/12/11 05:01:58;;;;;;;22.95;16.75;;;;;;;8.33;100.00;99573.53;1700384;82;21312;-76
2021/12/11 05:04:34;;;;;;;24.85;16.02;;;;;;;8.36;100.00;99569.03;1698154;84;21046;-78
2021/12/11 05:07:00;;;;;;;20.88;12.53;;;;;;;8.36;100.00;99587.78;1698359;84;21039;-72
2021/12/11 05:09:33;;;;;;;25.52;16.65;;;;;;;8.38;100.00;99586.22;1669646;84;21003;-73
2021/12/11 05:12:19;;;;;;;21.93;13.65;;;;;;;8.34;100.00;99583.73;1688580;82;21540;-74
2021/12/11 05:14:42;;;;;;;23.05;16.75;;;;;;;8.31;100.00;99578.30;1679131;82;21172;-74
2021/12/11 05:17:08;;;;;;;25.70;17.60;;;;;;;8.33;100.00;99584.25;1732228;82;21536;-74
2021/12/11 05:19:36;;;;;;;23.75;15.83;;;;;;;8.34;100.00;99579.71;1684294;84;21043;-75
2021/12/11 05:22:03;;;;;;;20.30;15.70;;;;;;;8.31;100.00;99579.12;1718302;82;21563;-75
2021/12/11 05:24:30;;;;;;;23.47;17.27;;;;;;;8.31;100.00;99577.78;1732315;82;21024;-75
2021/12/11 05:26:56;;;;;;;20.35;15.43;;;;;;;8.35;100.00;99574.61;1699496;82;21042;-74
2021/12/11 05:29:23;;;;;;;23.25;16.52;;;;;;;8.36;100.00;99589.64;1668299;85;21081;-74
2021/12/11 05:31:50;;;;;;;20.15;15.30;;;;;;;8.35;100.00;99584.81;1662989;84;21053;-74
2021/12/11 05:34:17;;;;;;;24.27;17.65;;;;;;;8.36;100.00;99579.74;1674670;85;21059;-74
2021/12/11 05:36:43;;;;;;;20.37;16.52;;;;;;;8.37;100.00;99583.24;1674671;85;21023;-74
2021/12/11 05:39:14;;;;;;;24.70;17.02;;;;;;;8.35;100.00;99582.66;1668279;85;21524;-75
2021/12/11 05:41:40;;;;;;;25.55;16.48;;;;;;;8.38;100.00;99582.20;1676616;82;21053;-74
2021/12/11 05:44:08;;;;;;;23.15;16.62;;;;;;;8.38;100.00;99579.52;1674995;85;21032;-74
2021/12/11 05:46:34;;;;;;;23.18;16.30;;;;;;;8.41;100.00;99589.75;1668078;85;21564;-76
2021/12/11 05:49:01;;;;;;;21.02;18.17;;;;;;;8.45;100.00;99593.58;1675697;84;21038;-74
2021/12/11 05:51:27;;;;;;;20.62;16.32;;;;;;;8.46;100.00;99593.34;1671728;82;21396;-75
2021/12/11 05:53:56;;;;;;;21.23;15.50;;;;;;;8.52;100.00;99599.10;1708697;82;21039;-74
2021/12/11 05:56:23;;;;;;;27.87;18.77;;;;;;;8.53;99.82;99599.39;1703055;84;21027;-74
2021/12/11 06:01:24;;;;;;;20.75;17.55;;;;;;;8.54;99.15;99587.59;1694303;82;21056;-72
2021/12/11 06:03:51;;;;;;;19.25;15.75;;;;;;;8.54;98.90;99584.92;1718126;82;21227;-76
2021/12/11 06:06:19;;;;;;;18.65;16.70;;;;;;;8.49;98.58;99584.03;1702996;84;20903;-77
2021/12/11 06:08:45;;;;;;;20.43;15.48;;;;;;;8.50;98.77;99582.95;1702115;84;21062;-73
2021/12/11 06:11:13;;;;;;;19.35;15.32;;;;;;;8.51;98.57;99586.75;1704591;82;21516;-78
2021/12/11 06:13:41;;;;;;;18.07;14.20;;;;;;;8.48;98.35;99586.42;1685766;84;21015;-76
2021/12/11 06:16:07;;;;;;;18.05;16.02;;;;;;;8.51;98.54;99604.69;1671342;84;22319;-76
2021/12/11 06:18:35;;;;;;;17.35;13.43;;;;;;;8.52;98.27;99595.08;1672076;83;21540;-77
2021/12/11 06:21:02;;;;;;;19.32;16.85;;;;;;;8.52;98.06;99591.58;1698597;83;20943;-75
2021/12/11 06:23:28;;;;;;;23.73;16.23;;;;;;;8.56;97.87;99586.03;1698312;84;21400;-75
2021/12/11 06:25:55;;;;;;;21.57;16.57;;;;;;;8.52;97.60;99587.04;1679256;84;21032;-75
2021/12/11 06:28:25;;;;;;;19.98;16.40;;;;;;;8.54;97.49;99588.13;1693348;83;21933;-76
2021/12/11 06:30:52;;;;;;;22.73;15.68;;;;;;;8.50;97.41;99590.47;1699694;84;20955;-76
2021/12/11 06:33:21;;;;;;;19.75;15.70;;;;;;;8.45;97.68;99590.37;1678164;84;21067;-74
2021/12/11 06:35:54;;;;;;;24.07;18.20;;;;;;;8.47;97.74;99598.19;1685487;84;21023;-75
2021/12/11 06:38:23;;;;;;;;;;;;;;;8.48;97.79;99585.08;1700476;83;21027;-76
2021/12/11 06:40:49;;;;;;;19.65;15.72;;;;;;;8.50;97.54;99596.36;1698775;84;21125;-75
2021/12/11 06:43:16;;;;;;;24.43;16.90;;;;;;;8.51;97.64;99598.80;1691981;84;20915;-76
2021/12/11 06:45:45;;;;;;;23.85;17.98;;;;;;;8.52;97.51;99591.06;1680594;84;21559;-76
2021/12/11 06:48:12;;;;;;;24.20;18.67;;;;;;;8.55;97.34;99596.45;1700095;83;21058;-77
2021/12/11 06:50:44;;;;;;;22.93;16.15;;;;;;;8.51;97.29;99601.48;1679986;82;21021;-76
2021/12/11 06:53:22;;;;;;;20.27;16.05;;;;;;;8.46;97.75;99597.37;1670199;85;22162;-78
2021/12/11 06:55:48;;;;;;;25.10;17.65;;;;;;;8.47;97.82;99580.77;1663348;85;21069;-77
2021/12/11 06:58:15;;;;;;;18.98;16.95;;;;;;;8.48;97.84;99590.44;1689664;82;21023;-78
2021/12/11 07:00:42;;;;;;;19.60;16.37;;;;;;;8.48;97.78;99599.82;1698385;82;20904;-76
2021/12/11 07:03:09;;;;;;;21.62;16.80;;;;;;;8.50;97.75;99585.64;1654611;84;21079;-77
2021/12/11 07:05:37;;;;;;;19.02;17.00;;;;;;;8.51;97.70;99594.79;1676651;84;21093;-76
2021/12/11 07:08:06;;;;;;;20.97;15.98;;;;;;;8.52;97.60;99587.04;1659031;83;21632;-77
2021/12/11 07:10:33;;;;;;;18.25;13.88;;;;;;;8.51;97.48;99564.48;1706652;82;21027;-76
2021/12/11 07:13:00;;;;;;;19.92;14.98;;;;;;;8.48;97.33;99579.72;1727555;82;20975;-77
2021/12/11 07:15:27;;;;;;;21.10;15.85;;;;;;;8.45;97.19;99578.31;1702091;83;21070;-78
2021/12/11 07:17:53;;;;;;;20.02;16.48;;;;;;;8.43;97.34;99568.38;1623830;84;21109;-77
2021/12/11 07:20:22;;;;;;;18.12;13.48;;;;;;;8.43;97.27;99570.23;1670035;85;21008;-78
2021/12/11 07:22:49;;;;;;;20.72;16.27;;;;;;;8.44;97.06;99585.27;1670026;85;20990;-79
2021/12/11 07:25:51;;;;;;;16.87;12.05;;;;;;;8.42;96.90;99592.72;1690524;84;21027;-77
2021/12/11 07:28:18;;;;;;;18.60;16.20;;;;;;;8.39;96.69;99590.01;1676447;83;20986;-78
2021/12/11 07:30:46;;;;;;;20.62;16.57;;;;;;;8.38;96.76;99595.59;1727047;83;21043;-77
2021/12/11 07:33:13;;;;;;;16.87;14.70;;;;;;;8.39;96.82;99591.34;1697971;83;21019;-78
2021/12/11 07:35:40;;;;;;;15.93;13.22;;;;;;;8.41;96.29;99596.45;1704106;83;20931;-80
2021/12/11 07:38:08;;;;;;;17.00;14.58;;;;;;;8.38;95.88;99607.13;1677517;83;21079;-75
2021/12/11 07:40:39;;;;;;;18.85;15.10;;;;;;;8.40;95.86;99600.98;1697853;84;21051;-80
2021/12/11 07:43:06;;;;;;;17.67;14.80;;;;;;;8.39;95.73;99602.59;1696931;84;21923;-79
2021/12/11 07:45:35;;;;;;;19.27;15.05;;;;;;;8.39;95.65;99595.37;1671030;84;21535;-76
2021/12/11 07:48:01;;;;;;;19.52;14.68;;;;;;;8.39;95.27;99598.05;1641249;84;21595;-77
2021/12/11 07:50:27;;;;;;;18.73;13.32;;;;;;;8.37;95.05;99598.80;1698050;84;21022;-78
2021/12/11 07:52:54;;;;;;;18.40;14.83;;;;;;;8.37;94.79;99594.77;1698354;84;21600;-74
2021/12/11 07:55:20;;;;;;;18.45;14.93;;;;;;;8.41;94.86;99590.56;1697492;84;21600;-76
2021/12/11 07:57:46;;;;;;;19.23;15.72;;;;;;;8.42;94.51;99594.88;1698044;83;21034;-76
2021/12/11 08:00:17;;;;;;;20.40;15.58;;;;;;;8.43;94.38;99591.67;1726398;83;20980;-76
2021/12/11 08:02:44;;;;;;;18.73;14.85;;;;;;;8.44;94.32;99573.21;1727190;83;21078;-77
2021/12/11 08:05:11;;;;;;;20.82;16.45;;;;;;;8.42;94.25;99591.38;1713623;83;21046;-77
2021/12/11 08:07:39;;;;;;;28.47;16.23;;;;;;;8.42;94.18;99595.40;1670186;86;21941;-77
2021/12/11 08:10:12;;;;;;;18.07;15.15;;;;;;;8.43;94.19;99595.17;1721604;83;20955;-80
2021/12/11 08:12:40;;;;;;;16.97;14.07;;;;;;;8.38;94.17;99591.58;1724824;82;21011;-79
2021/12/11 08:15:10;;;;;;;13.40;11.08;;;;;;;8.35;93.97;99596.87;1677918;83;21018;-81
2021/12/11 08:17:38;;;;;;;23.18;15.43;;;;;;;8.33;94.19;99590.95;1696143;84;22210;-77
2021/12/11 08:20:06;;;;;;;25.30;17.10;;;;;;;8.30;94.14;99584.18;1722076;83;22188;-78
2021/12/11 08:22:33;;;;;;;21.12;15.88;;;;;;;8.31;94.20;99598.39;1687172;82;20982;-76
2021/12/11 08:24:59;;;;;;;22.00;16.93;;;;;;;8.29;94.56;99590.62;1699336;82;21091;-74
2021/12/11 08:27:27;;;;;;;16.15;13.10;;;;;;;8.27;94.61;99588.66;1697468;83;21012;-80
2021/12/11 08:29:54;;;;;;;22.58;17.05;;;;;;;8.24;95.13;99589.66;1680379;84;21030;-76
2021/12/11 08:32:21;;;;;;;25.30;16.62;;;;;;;8.24;95.44;99587.80;1681798;84;21063;-75
2021/12/11 08:34:48;;;;;;;17.52;15.15;;;;;;;8.18;96.21;99598.64;1697445;84;21215;-75
2021/12/11 08:37:16;;;;;;;24.47;17.00;;;;;;;8.19;96.38;99589.56;1685782;83;20963;-75
2021/12/11 08:39:43;;;;;;;21.90;17.30;;;;;;;8.14;97.22;99587.59;1694155;83;21050;-75
2021/12/11 08:42:12;;;;;;;20.08;15.78;;;;;;;8.09;97.65;99588.82;1675325;84;21579;-77
2021/12/11 08:44:48;;;;;;;17.57;14.70;;;;;;;8.02;99.44;99578.75;1645177;84;21132;-77
2021/12/11 08:47:11;;;;;;;21.52;16.48;;;;;;;7.95;100.00;99571.38;1665401;84;21055;-76
2021/12/11 08:49:40;;;;;;;21.33;16.40;;;;;;;7.89;100.00;99581.16;1723408;83;21000;-75
2021/12/11 08:52:27;;;;;;;23.07;18.23;;;;;;;7.85;100.00;99581.87;1694736;83;21111;-73
2021/12/11 08:54:54;;;;;;;23.30;19.12;;;;;;;7.83;100.00;99591.47;1690276;84;21280;-72
2021/12/11 08:57:25;;;;;;;21.82;16.57;;;;;;;7.80;100.00;99592.47;1662022;83;21787;-74
2021/12/11 08:59:55;;;;;;;22.13;17.57;;;;;;;7.75;100.00;99590.49;1694989;83;20908;-77
2021/12/11 09:02:36;;;;;;;22.27;15.60;;;;;;;7.71;100.00;99593.35;1691984;83;20967;-77
2021/12/11 09:05:14;;;;;;;22.58;16.42;;;;;;;7.64;100.00;99585.95;1635726;86;21548;-78
2021/12/11 09:07:49;;;;;;;22.62;16.52;;;;;;;7.64;100.00;99583.27;1649500;84;21055;-78
2021/12/11 09:10:32;;;;;;;22.32;16.05;;;;;;;7.58;100.00;99576.72;1690091;83;21031;-78
2021/12/11 09:13:12;;;;;;;24.92;17.25;;;;;;;7.61;100.00;99577.58;1679659;84;21652;-77
2021/12/11 09:15:48;;;;;;;20.15;14.43;;;;;;;7.63;100.00;99578.96;1696665;83;21271;-80
2021/12/11 09:18:26;;;;;;;24.35;16.67;;;;;;;7.59;100.00;99585.83;1681448;83;20974;-79
2021/12/11 09:21:05;;;;;;;23.22;17.60;;;;;;;7.59;100.00;99582.34;1724626;83;20983;-79
2021/12/11 09:24:03;;;;;;;21.23;16.32;;;;;;;7.60;100.00;99578.10;1699730;83;21140;-76
2021/12/11 09:26:41;;;;;;;23.02;16.32;;;;;;;7.60;100.00;99583.97;1701155;82;21085;-76
2021/12/11 09:29:22;;;;;;;19.92;13.75;;;;;;;7.59;100.00;99583.67;1690305;84;21003;-75
2021/12/11 09:32:01;;;;;;;22.05;16.87;;;;;;;7.57;100.00;99581.77;1669087;85;21011;-76
2021/12/11 09:34:38;;;;;;;24.85;16.32;;;;;;;7.57;100.00;99581.77;1683760;84;21500;-76
2021/12/11 09:37:05;;;;;;;24.18;17.55;;;;;;;7.54;100.00;99575.01;1689742;84;21650;-75
2021/12/11 09:39:40;;;;;;;25.10;19.52;;;;;;;7.52;100.00;99578.98;1695060;84;20999;-77
2021/12/11 09:42:07;;;;;;;26.45;15.03;;;;;;;7.54;100.00;99584.89;1676872;84;21061;-77
2021/12/11 09:44:47;;;;;;;24.40;16.20;;;;;;;7.49;100.00;99583.44;1674385;85;21118;-77
2021/12/11 09:47:22;;;;;;;23.67;16.75;;;;;;;7.45;100.00;99589.78;1657270;84;21572;-76
2021/12/11 09:49:56;;;;;;;24.75;17.87;;;;;;;7.45;100.00;99567.04;1694841;84;22003;-76
2021/12/11 09:52:23;;;;;;;28.52;18.35;;;;;;;7.41;100.00;99589.96;1695473;84;21011;-76
2021/12/11 09:54:58;;;;;;;21.87;15.25;;;;;;;7.40;100.00;99573.09;1695551;84;20975;-79
2021/12/11 09:57:28;;;;;;;19.05;13.28;;;;;;;7.34;100.00;99573.19;1693159;84;21122;-77
2021/12/11 09:59:57;;;;;;;26.25;14.93;;;;;;;7.27;100.00;99585.88;1695288;84;21091;-77
2021/12/11 10:02:27;;;;;;;24.60;14.53;;;;;;;7.27;100.00;99575.18;1673608;84;21998;-77
2021/12/11 10:05:07;;;;;;;19.90;15.43;;;;;;;7.23;100.00;99582.86;1667367;86;21015;-77
2021/12/11 10:07:38;;;;;;;21.45;13.03;;;;;;;7.20;100.00;99575.79;1667767;86;21056;-76
2021/12/11 10:10:13;;;;;;;25.95;16.57;;;;;;;7.16;100.00;99574.63;1721700;83;21725;-76
2021/12/11 10:12:44;;;;;;;18.10;14.75;;;;;;;7.12;100.00;99582.83;1717029;83;21528;-76
2021/12/11 10:15:24;;;;;;;23.27;15.10;;;;;;;7.13;100.00;99570.57;1677530;84;21214;-75
2021/12/11 10:18:10;;;;;;;25.85;19.42;;;;;;;7.10;100.00;99584.38;1702408;83;21074;-74
2021/12/11 10:20:53;;;;;;;28.35;16.07;;;;;;;7.08;100.00;99586.48;1698602;84;21063;-75
2021/12/11 10:23:29;;;;;;;29.65;20.10;;;;;;;7.11;100.00;99568.64;1683713;82;21142;-75
2021/12/11 10:25:59;;;;;;;38.75;22.10;;;;;;;7.13;100.00;99595.98;1685266;84;20987;-75
2021/12/11 10:28:28;;;;;;;31.37;21.40;;;;;;;7.16;100.00;99588.00;1675467;84;21125;-74
2021/12/11 10:31:12;;;;;;;33.70;24.52;;;;;;;7.16;100.00;99595.50;1674999;84;21277;-74
2021/12/11 10:33:39;;;;;;;32.23;19.25;;;;;;;7.10;100.00;99583.05;1678106;84;21033;-74
2021/12/11 10:36:10;;;;;;;30.08;20.60;;;;;;;7.07;100.00;99590.72;1642519;86;21125;-73
2021/12/11 10:38:37;;;;;;;25.37;18.15;;;;;;;7.03;100.00;99588.22;1618682;86;21614;-72
2021/12/11 10:41:06;;;;;;;24.63;17.27;;;;;;;6.97;100.00;99582.73;1664699;85;21156;-74
2021/12/11 10:43:55;;;;;;;22.82;14.80;;;;;;;6.90;100.00;99583.89;1677752;84;20984;-72
2021/12/11 10:46:29;;;;;;;22.00;15.25;;;;;;;6.86;100.00;99580.84;1696640;84;20998;-74
2021/12/11 10:48:56;;;;;;;15.75;12.03;;;;;;;6.86;100.00;99594.72;1665593;84;21015;-74
2021/12/11 10:51:29;;;;;;;23.98;16.57;;;;;;;6.83;100.00;99592.00;1684091;84;21026;-76
2021/12/11 10:53:56;;;;;;;26.42;16.77;;;;;;;6.84;100.00;99594.97;1665796;84;20989;-74
2021/12/11 10:56:22;;;;;;;23.18;16.27;;;;;;;6.83;100.00;99583.16;1677202;84;21059;-75
2021/12/11 10:58:57;;;;;;;21.70;16.23;;;;;;;6.82;100.00;99582.34;1686595;84;20971;-75
2021/12/11 11:01:29;;;;;;;25.12;14.58;;;;;;;6.83;100.00;99579.97;1678589;82;21038;-76
2021/12/11 11:04:03;;;;;;;28.07;15.38;;;;;;;6.86;100.00;99589.37;1699122;84;21362;-75
2021/12/11 11:06:30;;;;;;;21.02;15.18;;;;;;;6.87;100.00;99592.34;1658429;84;22106;-75
2021/12/11 11:08:58;;;;;;;20.57;15.03;;;;;;;6.88;100.00;99596.14;1671010;84;21563;-75
2021/12/11 11:11:28;;;;;;;17.65;12.70;;;;;;;6.84;100.00;99580.27;1679090;84;21293;-74
2021/12/11 11:13:56;;;;;;;16.25;12.70;;;;;;;6.79;100.00;99598.03;1686404;84;21147;-76
2021/12/11 11:16:23;;;;;;;16.50;11.08;;;;;;;6.78;100.00;99599.06;1670331;85;21541;-75
2021/12/11 11:18:52;;;;;;;15.85;12.58;;;;;;;6.72;100.00;99599.97;1672166;83;21026;-75
2021/12/11 11:21:25;;;;;;;15.78;11.83;;;;;;;6.68;100.00;99594.78;1674774;85;21022;-73
2021/12/11 11:23:53;;;;;;;18.45;12.30;;;;;;;6.69;100.00;99592.41;1682620;84;20978;-75
2021/12/11 11:26:28;;;;;;;11.45;9.28;;;;;;;6.69;100.00;99584.39;1702764;84;21047;-77
2021/12/11 11:28:55;;;;;;;20.17;12.20;;;;;;;6.72;100.00;99581.26;1672800;84;21054;-75
2021/12/11 11:31:26;;;;;;;18.35;11.38;;;;;;;6.70;100.00;99594.05;1700709;84;21236;-74
2021/12/11 11:33:54;;;;;;;14.75;11.18;;;;;;;6.67;100.00;99601.98;1685000;83;21047;-73
2021/12/11 11:36:26;;;;;;;12.03;9.98;;;;;;;6.62;100.00;99583.14;1702884;84;21026;-73
2021/12/11 11:38:58;;;;;;;10.30;8.95;;;;;;;6.61;100.00;99601.57;1703117;84;21023;-75
2021/12/11 11:41:31;;;;;;;15.75;12.28;;;;;;;6.59;100.00;99606.31;1702811;84;21022;-76
2021/12/11 11:43:58;;;;;;;13.68;9.70;;;;;;;6.60;100.00;99601.79;1701230;84;21121;-74
2021/12/11 11:46:24;;;;;;;18.05;13.88;;;;;;;6.54;100.00;99597.64;1671919;84;21099;-74